createdAt,value
2022-09-27T00:01:55.483Z,88.29
2022-09-27T00:04:00.754Z,88.54
2022-09-27T00:06:07.971Z,88.45
2022-09-27T00:08:11.684Z,88.28
2022-09-27T00:10:16.437Z,88.23
2022-09-27T00:12:20.194Z,87.82
2022-09-27T00:14:25.394Z,88.14
2022-09-27T00:16:31.617Z,88.13
2022-09-27T00:18:35.445Z,87.92
2022-09-27T00:20:39.323Z,87.66
2022-09-27T00:22:43.050Z,87.70
2022-09-27T00:24:46.740Z,87.72
2022-09-27T00:26:50.963Z,87.47
2022-09-27T00:28:55.130Z,87.65
2022-09-27T00:31:00.631Z,87.85
2022-09-27T00:33:04.703Z,87.78
2022-09-27T00:35:08.932Z,87.93
2022-09-27T00:37:13.636Z,87.70
2022-09-27T00:39:18.156Z,88.18
2022-09-27T00:41:24.674Z,88.06
2022-09-27T00:43:28.322Z,88.41
2022-09-27T00:45:32.050Z,88.68
2022-09-27T00:47:43.532Z,88.67
2022-09-27T00:49:51.051Z,88.79
2022-09-27T00:51:59.512Z,89.08
2022-09-27T00:54:03.902Z,88.78
2022-09-27T00:56:12.936Z,89.10
2022-09-27T00:58:20.414Z,89.06
2022-09-27T01:00:24.662Z,88.97
2022-09-27T01:02:29.009Z,89.30
2022-09-27T01:04:35.384Z,89.11
2022-09-27T01:06:39.939Z,88.90
2022-09-27T01:08:43.864Z,89.15
2022-09-27T01:11:00.044Z,89.40
2022-09-27T01:13:14.572Z,89.94
2022-09-27T01:15:27.325Z,89.67
2022-09-27T01:17:43.075Z,89.60
2022-09-27T01:20:16.612Z,89.71
2022-09-27T01:22:23.512Z,89.18
2022-09-27T01:25:04.354Z,89.21
2022-09-27T01:27:29.785Z,89.10
2022-09-27T01:29:42.982Z,88.75
2022-09-27T01:31:52.179Z,88.46
2022-09-27T01:34:05.108Z,87.80
2022-09-27T01:36:18.220Z,88.02
2022-09-27T01:38:26.958Z,87.52
2022-09-27T01:40:37.485Z,87.46
2022-09-27T01:43:19.662Z,87.26
2022-09-27T01:45:30.199Z,87.02
2022-09-27T01:47:48.461Z,86.61
2022-09-27T01:50:14.938Z,86.12
2022-09-27T01:52:23.860Z,85.99
2022-09-27T01:54:35.242Z,85.74
2022-09-27T01:56:59.167Z,85.66
2022-09-27T01:59:12.385Z,85.65
2022-09-27T02:01:24.156Z,85.60
2022-09-27T02:03:34.442Z,85.88
2022-09-27T02:06:06.662Z,85.83
2022-09-27T02:08:36.256Z,85.92
2022-09-27T02:10:48.590Z,86.03
2022-09-27T02:12:59.472Z,86.09
2022-09-27T02:15:08.349Z,86.30
2022-09-27T02:17:21.576Z,86.39
2022-09-27T02:19:39.671Z,86.26
2022-09-27T02:21:55.070Z,86.37
2022-09-27T02:24:01.315Z,86.54
2022-09-27T02:26:09.993Z,86.64
2022-09-27T02:28:24.833Z,86.82
2022-09-27T02:30:28.655Z,86.82
2022-09-27T02:32:38.779Z,86.73
2022-09-27T02:34:46.275Z,87.08
2022-09-27T02:36:49.757Z,87.29
2022-09-27T02:38:53.208Z,87.63
2022-09-27T02:40:58.181Z,88.01
2022-09-27T02:43:03.843Z,88.31
2022-09-27T02:45:09.058Z,89.02
2022-09-27T02:47:35.536Z,89.07
2022-09-27T02:50:01.407Z,89.08
2022-09-27T02:52:33.378Z,88.88
2022-09-27T02:54:46.227Z,88.92
2022-09-27T02:57:31.807Z,89.24
2022-09-27T03:00:10.203Z,88.95
2022-09-27T03:02:35.586Z,88.91
2022-09-27T03:05:04.914Z,88.83
2022-09-27T03:07:08.732Z,88.89
2022-09-27T03:09:18.898Z,88.43
2022-09-27T03:11:22.532Z,88.18
2022-09-27T03:13:25.927Z,87.98
2022-09-27T03:15:29.939Z,88.01
2022-09-27T03:17:38.289Z,87.84
2022-09-27T03:20:18.959Z,87.50
2022-09-27T03:22:27.138Z,87.42
2022-09-27T03:24:30.570Z,87.42
2022-09-27T03:26:34.018Z,87.15
2022-09-27T03:28:37.445Z,87.22
2022-09-27T03:30:42.261Z,86.88
2022-09-27T03:32:47.212Z,86.91
2022-09-27T03:35:30.532Z,86.80
2022-09-27T03:37:34.696Z,87.00
2022-09-27T03:39:38.046Z,86.76
2022-09-27T03:41:42.360Z,86.85
2022-09-27T03:43:45.841Z,86.59
2022-09-27T03:45:50.386Z,86.85
2022-09-27T03:47:54.940Z,86.30
2022-09-27T03:49:58.688Z,86.49
2022-09-27T03:52:03.762Z,86.53
2022-09-27T03:54:07.338Z,86.39
2022-09-27T03:56:10.964Z,86.56
2022-09-27T03:58:14.381Z,86.53
2022-09-27T04:00:18.441Z,86.56
2022-09-27T04:02:21.908Z,86.78
2022-09-27T04:04:44.490Z,86.55
2022-09-27T04:06:48.227Z,86.56
2022-09-27T04:08:53.350Z,86.14
2022-09-27T04:10:59.458Z,86.18
2022-09-27T04:13:03.108Z,86.28
2022-09-27T04:15:12.387Z,86.22
2022-09-27T04:17:27.672Z,86.17
2022-09-27T04:20:00.054Z,86.05
2022-09-27T04:22:03.682Z,85.90
2022-09-27T04:24:09.151Z,86.08
2022-09-27T04:26:13.824Z,85.83
2022-09-27T04:28:30.294Z,85.80
2022-09-27T04:30:34.149Z,85.80
2022-09-27T04:32:49.752Z,85.65
2022-09-27T04:35:37.335Z,85.70
2022-09-27T04:37:42.055Z,85.73
2022-09-27T04:39:46.866Z,85.96
2022-09-27T04:41:51.691Z,85.88
2022-09-27T04:43:58.894Z,85.90
2022-09-27T04:46:02.890Z,86.28
2022-09-27T04:48:06.373Z,86.03
2022-09-27T04:50:11.151Z,86.07
2022-09-27T04:52:15.593Z,86.30
2022-09-27T04:54:19.331Z,86.05
2022-09-27T04:56:44.081Z,86.18
2022-09-27T04:58:47.409Z,86.08
2022-09-27T05:00:52.689Z,86.07
2022-09-27T05:03:15.193Z,85.79
2022-09-27T05:05:29.902Z,85.90
2022-09-27T05:07:35.631Z,86.17
2022-09-27T05:09:44.126Z,86.22
2022-09-27T05:11:49.520Z,86.45
2022-09-27T05:13:53.281Z,86.60
2022-09-27T05:15:57.468Z,86.31
2022-09-27T05:18:18.267Z,86.42
2022-09-27T05:20:51.257Z,86.71
2022-09-27T05:23:00.753Z,86.87
2022-09-27T05:25:04.459Z,86.47
2022-09-27T05:27:11.585Z,86.96
2022-09-27T05:29:15.252Z,86.94
2022-09-27T05:31:25.566Z,87.24
2022-09-27T05:33:29.885Z,87.69
2022-09-27T05:35:56.044Z,87.42
2022-09-27T05:38:06.195Z,87.86
2022-09-27T05:40:36.579Z,88.10
2022-09-27T05:42:40.690Z,88.44
2022-09-27T05:44:48.876Z,88.14
2022-09-27T05:46:53.388Z,88.43
2022-09-27T05:48:57.118Z,88.86
2022-09-27T05:51:00.950Z,88.96
2022-09-27T05:53:04.878Z,89.31
2022-09-27T05:55:09.703Z,89.42
2022-09-27T05:57:13.534Z,89.54
2022-09-27T05:59:22.003Z,89.21
2022-09-27T06:01:44.752Z,89.54
2022-09-27T06:03:55.269Z,89.50
2022-09-27T06:06:15.797Z,89.48
2022-09-27T06:08:25.490Z,89.63
2022-09-27T06:10:30.416Z,89.76
2022-09-27T06:12:35.497Z,89.47
2022-09-27T06:14:44.063Z,90.11
2022-09-27T06:16:54.772Z,89.86
2022-09-27T06:19:02.120Z,90.09
2022-09-27T06:21:07.957Z,90.10
2022-09-27T06:23:13.755Z,90.14
2022-09-27T06:25:17.808Z,90.35
2022-09-27T06:27:40.341Z,90.63
2022-09-27T06:29:51.254Z,90.29
2022-09-27T06:32:15.495Z,90.56
2022-09-27T06:34:26.208Z,90.73
2022-09-27T06:36:30.182Z,90.59
2022-09-27T06:38:34.247Z,90.53
2022-09-27T06:40:47.617Z,90.69
2022-09-27T06:42:51.415Z,90.44
2022-09-27T06:45:04.947Z,90.38
2022-09-27T06:47:17.958Z,90.11
2022-09-27T06:49:31.874Z,90.22
2022-09-27T06:51:36.856Z,89.98
2022-09-27T06:53:40.922Z,89.97
2022-09-27T06:55:45.561Z,90.32
2022-09-27T06:58:06.840Z,90.40
2022-09-27T07:00:27.121Z,90.01
2022-09-27T07:03:01.386Z,90.02
2022-09-27T07:05:29.619Z,89.57
2022-09-27T07:07:49.410Z,90.12
2022-09-27T07:09:53.333Z,89.83
2022-09-27T07:11:57.798Z,90.05
2022-09-27T07:14:02.376Z,90.12
2022-09-27T07:16:08.914Z,89.81
2022-09-27T07:18:13.858Z,89.83
2022-09-27T07:20:18.634Z,89.85
2022-09-27T07:22:22.642Z,89.67
2022-09-27T07:24:32.543Z,89.91
2022-09-27T07:26:37.247Z,89.91
2022-09-27T07:28:45.349Z,89.53
2022-09-27T07:30:57.409Z,89.25
2022-09-27T07:33:05.863Z,89.12
2022-09-27T07:35:11.242Z,89.37
2022-09-27T07:37:15.109Z,88.79
2022-09-27T07:39:18.943Z,89.27
2022-09-27T07:41:22.875Z,89.46
2022-09-27T07:43:26.739Z,89.45
2022-09-27T07:45:31.536Z,89.04
2022-09-27T07:47:46.523Z,88.83
2022-09-27T07:50:00.216Z,88.29
2022-09-27T07:52:16.244Z,87.97
2022-09-27T07:54:45.970Z,88.32
2022-09-27T07:57:04.281Z,87.96
2022-09-27T07:59:09.188Z,87.43
2022-09-27T08:01:13.272Z,87.29
2022-09-27T08:03:18.733Z,87.57
2022-09-27T08:05:25.342Z,87.45
2022-09-27T08:07:30.384Z,86.92
2022-09-27T08:09:34.449Z,87.18
2022-09-27T08:11:38.675Z,86.88
2022-09-27T08:13:44.125Z,86.70
2022-09-27T08:15:48.923Z,86.91
2022-09-27T08:17:53.574Z,86.53
2022-09-27T08:20:24.896Z,85.95
2022-09-27T08:22:42.540Z,85.79
2022-09-27T08:24:59.870Z,86.43
2022-09-27T08:27:21.539Z,85.75
2022-09-27T08:29:29.069Z,86.15
2022-09-27T08:31:33.335Z,85.82
2022-09-27T08:33:41.444Z,86.28
2022-09-27T08:35:48.832Z,86.15
2022-09-27T08:37:59.388Z,85.95
2022-09-27T08:40:05.307Z,85.15
2022-09-27T08:42:19.589Z,85.50
2022-09-27T08:44:31.069Z,85.45
2022-09-27T08:47:04.186Z,84.86
2022-09-27T08:49:15.835Z,84.81
2022-09-27T08:51:23.694Z,85.08
2022-09-27T08:53:34.340Z,84.14
2022-09-27T08:55:42.281Z,83.82
2022-09-27T08:57:58.707Z,83.11
2022-09-27T09:00:07.356Z,83.39
2022-09-27T09:02:20.539Z,83.34
2022-09-27T09:04:33.401Z,83.47
2022-09-27T09:06:44.795Z,83.95
2022-09-27T09:09:01.878Z,83.44
2022-09-27T09:11:35.087Z,84.07
2022-09-27T09:13:55.961Z,83.99
2022-09-27T09:16:12.022Z,83.93
2022-09-27T09:18:31.354Z,83.77
2022-09-27T09:21:05.043Z,84.68
2022-09-27T09:23:28.402Z,84.10
2022-09-27T09:25:38.447Z,83.33
2022-09-27T09:27:50.058Z,83.36
2022-09-27T09:30:21.004Z,83.21
2022-09-27T09:32:37.227Z,83.13
2022-09-27T09:34:44.899Z,82.92
2022-09-27T09:36:52.705Z,82.91
2022-09-27T09:39:04.036Z,83.33
2022-09-27T09:41:13.770Z,83.14
2022-09-27T09:43:23.110Z,82.73
2022-09-27T09:45:31.916Z,82.71
2022-09-27T09:47:44.048Z,82.56
2022-09-27T09:49:53.566Z,82.30
2022-09-27T09:52:05.221Z,82.72
2022-09-27T09:54:21.165Z,82.41
2022-09-27T09:56:28.567Z,82.00
2022-09-27T09:58:41.889Z,81.56
2022-09-27T10:00:52.498Z,81.77
2022-09-27T10:02:59.743Z,81.99
2022-09-27T10:05:07.892Z,82.11
2022-09-27T10:07:13.522Z,82.29
2022-09-27T10:09:21.276Z,82.77
2022-09-27T10:11:48.308Z,82.23
2022-09-27T10:13:56.044Z,82.13
2022-09-27T10:16:05.646Z,82.56
2022-09-27T10:18:17.626Z,82.75
2022-09-27T10:20:31.637Z,82.67
2022-09-27T10:22:39.938Z,83.20
2022-09-27T10:24:58.735Z,83.50
2022-09-27T10:27:42.226Z,83.77
2022-09-27T10:29:47.435Z,84.17
2022-09-27T10:31:56.229Z,84.13
2022-09-27T10:34:08.540Z,84.12
2022-09-27T10:36:26.476Z,83.64
2022-09-27T10:38:33.126Z,83.66
2022-09-27T10:40:44.067Z,83.42
2022-09-27T10:42:48.785Z,82.92
2022-09-27T10:44:58.650Z,83.78
2022-09-27T10:47:23.239Z,83.40
2022-09-27T10:49:45.749Z,83.56
2022-09-27T10:52:06.714Z,84.31
2022-09-27T10:54:22.355Z,83.95
2022-09-27T10:56:31.367Z,84.17
2022-09-27T10:58:38.405Z,83.60
2022-09-27T11:00:56.867Z,83.90
2022-09-27T11:03:03.053Z,83.51
2022-09-27T11:05:15.413Z,82.81
2022-09-27T11:07:23.887Z,81.77
2022-09-27T11:09:50.940Z,80.65
2022-09-27T11:12:11.715Z,79.32
2022-09-27T11:14:25.868Z,78.77
2022-09-27T11:16:44.126Z,78.19
2022-09-27T11:19:01.758Z,78.55
2022-09-27T11:21:18.632Z,77.35
2022-09-27T11:23:41.421Z,76.98
2022-09-27T11:26:01.040Z,77.40
2022-09-27T11:28:16.478Z,77.28
2022-09-27T11:30:22.912Z,75.95
2022-09-27T11:33:17.865Z,75.78
2022-09-27T11:35:35.050Z,76.37
2022-09-27T11:37:50.954Z,76.40
2022-09-27T11:40:13.735Z,77.31
2022-09-27T11:42:41.315Z,77.06
2022-09-27T11:47:42.773Z,76.03
2022-09-27T11:50:25.600Z,76.20
2022-09-27T11:52:40.939Z,75.82
2022-09-27T11:55:07.717Z,75.88
2022-09-27T11:57:19.294Z,75.22
2022-09-27T11:59:52.561Z,74.59
2022-09-27T12:02:08.083Z,74.93
2022-09-27T12:04:38.822Z,75.18
2022-09-27T12:06:54.148Z,75.95
2022-09-27T12:09:07.521Z,76.13
2022-09-27T12:11:21.467Z,76.54
2022-09-27T12:13:34.755Z,76.07
2022-09-27T12:15:44.538Z,75.87
2022-09-27T12:17:55.806Z,75.58
2022-09-27T12:20:05.198Z,75.08
2022-09-27T12:22:40.548Z,74.18
2022-09-27T12:24:48.825Z,74.60
2022-09-27T12:27:23.584Z,74.97
2022-09-27T12:29:32.372Z,74.90
2022-09-27T12:31:42.550Z,75.09
2022-09-27T12:33:59.272Z,74.52
2022-09-27T12:36:09.682Z,74.81
2022-09-27T12:38:17.343Z,74.73
2022-09-27T12:40:23.431Z,75.13
2022-09-27T12:42:34.027Z,75.27
2022-09-27T12:44:47.464Z,76.01
2022-09-27T12:46:58.937Z,76.91
2022-09-27T12:49:12.792Z,77.39
2022-09-27T12:51:19.143Z,77.79
2022-09-27T12:53:32.006Z,78.22
2022-09-27T12:55:59.019Z,78.82
2022-09-27T12:58:39.559Z,79.08
2022-09-27T13:00:56.328Z,79.29
2022-09-27T13:03:28.434Z,79.39
2022-09-27T13:06:11.893Z,79.87
2022-09-27T13:08:50.815Z,79.99
2022-09-27T13:11:12.526Z,79.79
2022-09-27T13:13:20.562Z,79.49
2022-09-27T13:15:29.330Z,79.82
2022-09-27T13:17:51.913Z,79.71
2022-09-27T13:20:48.477Z,79.66
2022-09-27T13:24:01.046Z,79.82
2022-09-27T13:26:26.218Z,78.97
2022-09-27T13:28:58.527Z,79.49
2022-09-27T13:31:14.071Z,78.35
2022-09-27T13:33:36.405Z,78.03
2022-09-27T13:35:41.409Z,77.92
2022-09-27T13:37:57.245Z,77.83
2022-09-27T13:40:24.599Z,77.60
2022-09-27T13:42:56.191Z,77.67
2022-09-27T13:45:21.762Z,77.21
2022-09-27T13:47:33.598Z,77.09
2022-09-27T13:49:42.089Z,77.71
2022-09-27T13:51:51.190Z,77.22
2022-09-27T13:54:06.691Z,76.43
2022-09-27T13:56:56.438Z,77.22
2022-09-27T13:59:03.244Z,77.59
2022-09-27T14:01:43.915Z,78.06
2022-09-27T14:03:49.735Z,78.19
2022-09-27T14:05:57.145Z,78.54
2022-09-27T14:08:04.145Z,78.25
2022-09-27T14:10:15.743Z,77.92
2022-09-27T14:12:22.719Z,78.70
2022-09-27T14:14:31.616Z,78.66
2022-09-27T14:16:37.976Z,78.61
2022-09-27T14:18:51.192Z,79.31
2022-09-27T14:21:18.201Z,78.94
2022-09-27T14:23:34.197Z,78.76
2022-09-27T14:25:47.770Z,79.00
2022-09-27T14:27:52.266Z,79.15
2022-09-27T14:30:15.628Z,79.00
2022-09-27T14:32:23.556Z,79.33
2022-09-27T14:34:33.663Z,79.53
2022-09-27T14:36:56.712Z,78.86
2022-09-27T14:39:03.617Z,79.75
2022-09-27T14:41:16.080Z,80.03
2022-09-27T14:43:22.550Z,79.95
2022-09-27T14:45:36.762Z,80.07
2022-09-27T14:47:46.691Z,79.43
2022-09-27T14:49:52.510Z,79.57
2022-09-27T14:51:59.211Z,79.33
2022-09-27T14:54:05.711Z,79.55
2022-09-27T14:56:18.467Z,78.90
2022-09-27T14:58:46.013Z,79.59
2022-09-27T15:00:49.892Z,79.48
2022-09-27T15:02:56.676Z,79.52
2022-09-27T15:05:02.977Z,79.90
2022-09-27T15:07:07.822Z,79.43
2022-09-27T15:09:15.139Z,79.25
2022-09-27T15:11:20.683Z,79.37
2022-09-27T15:13:25.105Z,79.86
2022-09-27T15:15:32.921Z,79.81
2022-09-27T15:17:44.695Z,80.22
2022-09-27T15:20:02.534Z,80.93
2022-09-27T15:22:33.363Z,81.16
2022-09-27T15:24:39.040Z,80.97
2022-09-27T15:26:47.113Z,81.38
2022-09-27T15:28:52.623Z,81.18
2022-09-27T15:30:58.420Z,81.31
2022-09-27T15:33:03.788Z,81.44
2022-09-27T15:35:10.279Z,81.26
2022-09-27T15:37:27.966Z,81.34
2022-09-27T15:39:35.119Z,81.44
2022-09-27T15:42:13.545Z,82.19
2022-09-27T15:44:39.474Z,82.17
2022-09-27T15:46:44.340Z,82.07
2022-09-27T15:48:48.570Z,81.19
2022-09-27T15:50:53.247Z,80.72
2022-09-27T15:52:57.693Z,80.86
2022-09-27T15:55:01.502Z,81.12
2022-09-27T15:57:07.258Z,81.12
2022-09-27T15:59:21.029Z,80.32
2022-09-27T16:01:24.915Z,81.11
2022-09-27T16:03:29.292Z,80.52
2022-09-27T16:05:33.401Z,81.29
2022-09-27T16:07:37.258Z,80.83
2022-09-27T16:09:41.494Z,80.17
2022-09-27T16:11:45.328Z,80.64
2022-09-27T16:13:50.539Z,81.13
2022-09-27T16:15:55.956Z,81.47
2022-09-27T16:18:00.378Z,82.22
2022-09-27T16:20:04.317Z,81.76
2022-09-27T16:22:07.819Z,82.09
2022-09-27T16:24:12.456Z,81.82
2022-09-27T16:26:16.115Z,82.37
2022-09-27T16:28:20.131Z,82.61
2022-09-27T16:30:23.933Z,83.05
2022-09-27T16:32:29.401Z,83.88
2022-09-27T16:34:33.408Z,83.69
2022-09-27T16:36:37.785Z,83.68
2022-09-27T16:38:41.771Z,84.51
2022-09-27T16:40:45.676Z,84.76
2022-09-27T16:42:50.574Z,84.94
2022-09-27T16:44:55.378Z,84.96
2022-09-27T16:46:59.387Z,85.45
2022-09-27T16:49:04.635Z,85.42
2022-09-27T16:51:29.846Z,85.93
2022-09-27T16:53:34.009Z,85.92
2022-09-27T16:55:38.241Z,85.65
2022-09-27T16:57:42.354Z,85.70
2022-09-27T16:59:46.323Z,85.68
2022-09-27T17:01:50.213Z,85.85
2022-09-27T17:03:57.449Z,85.82
2022-09-27T17:06:05.431Z,86.26
2022-09-27T17:08:09.559Z,86.09
2022-09-27T17:10:13.681Z,86.40
2022-09-27T17:12:18.325Z,86.77
2022-09-27T17:14:22.831Z,86.82
2022-09-27T17:16:27.306Z,87.02
2022-09-27T17:18:31.086Z,87.37
2022-09-27T17:20:35.348Z,87.58
2022-09-27T17:22:41.117Z,87.21
2022-09-27T17:24:45.326Z,87.44
2022-09-27T17:26:49.520Z,88.16
2022-09-27T17:28:55.207Z,87.85
2022-09-27T17:31:05.326Z,88.43
2022-09-27T17:33:09.534Z,88.62
2022-09-27T17:35:13.480Z,88.57
2022-09-27T17:37:17.538Z,89.03
2022-09-27T17:39:23.623Z,89.33
2022-09-27T17:41:29.166Z,89.19
2022-09-27T17:43:34.210Z,89.85
2022-09-27T17:45:38.120Z,90.03
2022-09-27T17:48:00.203Z,90.25
2022-09-27T17:50:21.139Z,90.62
2022-09-27T17:52:27.008Z,90.84
2022-09-27T17:54:32.552Z,91.06
2022-09-27T17:56:39.498Z,91.04
2022-09-27T17:58:48.191Z,91.04
2022-09-27T18:00:55.703Z,91.22
2022-09-27T18:03:01.120Z,91.63
2022-09-27T18:05:05.689Z,91.96
2022-09-27T18:07:10.360Z,92.16
2022-09-27T18:09:16.310Z,91.90
2022-09-27T18:11:25.640Z,92.11
2022-09-27T18:13:31.607Z,92.35
2022-09-27T18:15:37.886Z,92.10
2022-09-27T18:17:43.745Z,92.03
2022-09-27T18:19:48.624Z,92.26
2022-09-27T18:21:52.640Z,92.49
2022-09-27T18:23:58.440Z,92.40
2022-09-27T18:26:09.706Z,92.60
2022-09-27T18:28:15.392Z,92.83
2022-09-27T18:30:20.002Z,93.39
2022-09-27T18:32:23.983Z,93.61
2022-09-27T18:34:27.792Z,93.33
2022-09-27T18:36:33.580Z,94.09
2022-09-27T18:38:37.339Z,94.10
2022-09-27T18:40:55.568Z,94.09
2022-09-27T18:42:59.786Z,94.39
2022-09-27T18:45:06.521Z,94.71
2022-09-27T18:47:10.507Z,94.63
2022-09-27T18:49:16.228Z,95.05
2022-09-27T18:51:22.479Z,95.00
2022-09-27T18:53:27.355Z,94.96
2022-09-27T18:55:31.924Z,94.62
2022-09-27T18:57:37.926Z,94.78
2022-09-27T18:59:42.221Z,95.18
2022-09-27T19:01:47.897Z,94.96
2022-09-27T19:03:51.990Z,95.29
2022-09-27T19:05:56.358Z,95.12
2022-09-27T19:08:00.013Z,95.11
2022-09-27T19:10:05.484Z,95.62
2022-09-27T19:12:09.119Z,95.45
2022-09-27T19:14:18.411Z,95.35
2022-09-27T19:16:23.173Z,95.09
2022-09-27T19:18:29.848Z,95.27
2022-09-27T19:20:34.727Z,95.36
2022-09-27T19:22:38.767Z,95.78
2022-09-27T19:24:42.604Z,95.38
2022-09-27T19:26:46.251Z,95.05
2022-09-27T19:28:50.428Z,94.97
2022-09-27T19:30:55.190Z,94.71
2022-09-27T19:32:59.445Z,94.56
2022-09-27T19:35:05.703Z,94.16
2022-09-27T19:37:09.537Z,93.71
2022-09-27T19:39:13.603Z,93.37
2022-09-27T19:41:18.714Z,93.27
2022-09-27T19:43:22.722Z,93.30
2022-09-27T19:45:26.620Z,92.94
2022-09-27T19:47:30.477Z,92.48
2022-09-27T19:49:34.750Z,92.41
2022-09-27T19:51:40.329Z,91.86
2022-09-27T19:53:45.031Z,91.67
2022-09-27T19:55:49.146Z,90.93
2022-09-27T19:57:53.273Z,91.12
2022-09-27T19:59:57.299Z,90.99
2022-09-27T20:02:01.243Z,90.43
2022-09-27T20:04:05.229Z,89.92
2022-09-27T20:06:11.549Z,89.05
2022-09-27T20:08:16.952Z,89.05
2022-09-27T20:10:21.126Z,88.36
2022-09-27T20:12:25.107Z,88.24
2022-09-27T20:14:29.142Z,88.14
2022-09-27T20:16:36.065Z,87.74
2022-09-27T20:18:43.698Z,86.73
2022-09-27T20:20:47.497Z,86.76
2022-09-27T20:22:52.031Z,86.34
2022-09-27T20:24:57.779Z,86.49
2022-09-27T20:27:01.728Z,86.05
2022-09-27T20:29:06.920Z,85.63
2022-09-27T20:31:13.134Z,85.44
2022-09-27T20:33:34.401Z,84.64
2022-09-27T20:35:38.436Z,84.40
2022-09-27T20:37:42.818Z,84.00
2022-09-27T20:39:46.515Z,84.00
2022-09-27T20:41:52.584Z,83.38
2022-09-27T20:43:58.749Z,83.71
2022-09-27T20:46:03.362Z,83.21
2022-09-27T20:48:07.611Z,83.34
2022-09-27T20:50:12.856Z,83.94
2022-09-27T20:52:17.139Z,83.73
2022-09-27T20:54:21.042Z,83.97
2022-09-27T20:56:27.030Z,83.94
2022-09-27T20:58:33.428Z,84.21
2022-09-27T21:00:37.415Z,84.34
2022-09-27T21:02:41.386Z,83.93
2022-09-27T21:04:45.272Z,83.91
2022-09-27T21:06:49.488Z,83.87
2022-09-27T21:08:53.356Z,83.70
2022-09-27T21:10:57.109Z,83.93
2022-09-27T21:13:01.467Z,84.03
2022-09-27T21:15:09.548Z,83.81
2022-09-27T21:17:14.798Z,84.23
2022-09-27T21:19:19.559Z,83.79
2022-09-27T21:21:25.308Z,83.17
2022-09-27T21:23:31.038Z,83.48
2022-09-27T21:25:35.532Z,83.27
2022-09-27T21:27:39.357Z,83.88
2022-09-27T21:29:45.628Z,83.30
2022-09-27T21:31:51.330Z,83.54
2022-09-27T21:33:59.310Z,83.67
2022-09-27T21:36:03.680Z,83.79
2022-09-27T21:38:07.626Z,83.92
2022-09-27T21:40:12.348Z,84.33
2022-09-27T21:42:16.501Z,84.13
2022-09-27T21:44:20.785Z,84.54
2022-09-27T21:46:26.848Z,84.37
2022-09-27T21:48:32.764Z,84.44
2022-09-27T21:50:36.666Z,84.70
2022-09-27T21:52:40.580Z,84.40
2022-09-27T21:54:44.384Z,84.12
2022-09-27T21:56:48.651Z,84.49
2022-09-27T21:58:52.976Z,84.63
2022-09-27T22:00:57.133Z,84.76
2022-09-27T22:03:00.765Z,84.77
2022-09-27T22:05:06.411Z,84.57
2022-09-27T22:07:10.374Z,84.41
2022-09-27T22:09:17.095Z,84.41
2022-09-27T22:11:23.123Z,84.67
2022-09-27T22:13:27.078Z,84.86
2022-09-27T22:15:30.717Z,84.61
2022-09-27T22:17:34.655Z,84.64
2022-09-27T22:19:38.485Z,84.58
2022-09-27T22:21:43.668Z,84.73
2022-09-27T22:23:47.469Z,84.95
2022-09-27T22:25:51.170Z,84.96
2022-09-27T22:27:54.865Z,85.18
2022-09-27T22:29:58.803Z,85.28
2022-09-27T22:32:04.019Z,85.36
2022-09-27T22:34:11.122Z,85.24
2022-09-27T22:36:15.049Z,85.55
2022-09-27T22:38:20.514Z,85.50
2022-09-27T22:40:24.469Z,85.49
2022-09-27T22:42:28.448Z,85.83
2022-09-27T22:44:33.770Z,85.70
2022-09-27T22:46:37.869Z,86.49
2022-09-27T22:48:42.611Z,86.94
2022-09-27T22:50:46.613Z,86.64
2022-09-27T22:52:50.311Z,87.17
2022-09-27T22:54:55.859Z,87.05
2022-09-27T22:56:59.653Z,87.27
2022-09-27T22:59:03.397Z,87.19
2022-09-27T23:01:10.898Z,87.59
2022-09-27T23:03:14.167Z,87.62
2022-09-27T23:05:17.677Z,87.96
2022-09-27T23:07:21.014Z,88.15
2022-09-27T23:09:24.827Z,88.43
2022-09-27T23:11:31.441Z,88.24
2022-09-27T23:13:35.597Z,88.44
2022-09-27T23:15:38.938Z,88.38
2022-09-27T23:17:42.517Z,88.35
2022-09-27T23:19:45.901Z,88.76
2022-09-27T23:21:50.196Z,88.38
2022-09-27T23:23:55.369Z,88.25
2022-09-27T23:26:00.249Z,88.04
2022-09-27T23:28:04.919Z,88.33
2022-09-27T23:30:09.094Z,88.15
2022-09-27T23:32:12.824Z,88.83
2022-09-27T23:34:16.320Z,88.61
2022-09-27T23:36:22.699Z,88.88
2022-09-27T23:38:25.975Z,88.74
2022-09-27T23:40:29.389Z,88.26
2022-09-27T23:42:32.944Z,88.19
2022-09-27T23:44:37.996Z,88.79
2022-09-27T23:46:41.536Z,88.29
2022-09-27T23:48:45.084Z,88.29
2022-09-27T23:50:49.398Z,88.44
2022-09-27T23:52:53.032Z,88.65
2022-09-27T23:54:56.328Z,88.65
2022-09-27T23:56:59.889Z,88.53
2022-09-27T23:59:03.229Z,88.20
